createdAt,value
2022-10-23T00:02:37.775Z,101255.88
2022-10-23T00:07:40.485Z,101267.94
2022-10-23T00:12:43.511Z,101262.22
2022-10-23T00:17:47.832Z,101272.56
2022-10-23T00:22:50.788Z,101273.38
2022-10-23T00:27:53.512Z,101272.41
2022-10-23T00:32:57.558Z,101277.72
2022-10-23T00:38:00.470Z,101274.16
2022-10-23T00:43:03.793Z,101279.44
2022-10-23T00:48:08.027Z,101274.06
2022-10-23T00:53:13.566Z,101273.94
2022-10-23T00:58:17.808Z,101279.09
2022-10-23T01:03:24.848Z,101287.78
2022-10-23T01:08:33.193Z,101290.16
2022-10-23T01:13:44.167Z,101297.69
2022-10-23T01:18:55.386Z,101299.81
2022-10-23T01:24:21.533Z,101300.16
2022-10-23T01:29:32.994Z,101300.47
2022-10-23T01:34:44.630Z,101306.25
2022-10-23T01:39:51.318Z,101310.31
2022-10-23T01:45:01.316Z,101303.13
2022-10-23T01:50:07.152Z,101306.44
2022-10-23T01:55:13.194Z,101307.22
2022-10-23T02:00:20.094Z,101304.16
2022-10-23T02:05:26.150Z,101314.44
2022-10-23T02:10:35.705Z,101322.06
2022-10-23T02:15:46.955Z,101311.16
2022-10-23T02:20:56.943Z,101310.03
2022-10-23T02:26:03.103Z,101314.19
2022-10-23T02:31:10.435Z,101312.19
2022-10-23T02:36:13.349Z,101316.59
2022-10-23T02:41:31.425Z,101305.94
2022-10-23T02:46:47.988Z,101306.91
2022-10-23T02:52:01.056Z,101306.63
2022-10-23T02:57:10.496Z,101302.66
2022-10-23T03:02:25.729Z,101316.81
2022-10-23T03:07:29.061Z,101305.16
2022-10-23T03:12:31.864Z,101283.13
2022-10-23T03:17:35.969Z,101285.03
2022-10-23T03:22:38.774Z,101287.00
2022-10-23T03:27:41.543Z,101291.44
2022-10-23T03:32:45.875Z,101291.34
2022-10-23T03:37:48.643Z,101300.22
2022-10-23T03:42:51.361Z,101304.34
2022-10-23T03:47:55.457Z,101304.78
2022-10-23T03:52:58.453Z,101311.38
2022-10-23T03:58:01.139Z,101297.13
2022-10-23T04:03:05.260Z,101304.03
2022-10-23T04:08:08.001Z,101308.34
2022-10-23T04:13:10.755Z,101308.03
2022-10-23T04:18:14.818Z,101294.41
2022-10-23T04:23:18.232Z,101307.28
2022-10-23T04:28:20.936Z,101311.31
2022-10-23T04:33:26.082Z,101313.47
2022-10-23T04:38:28.824Z,101321.88
2022-10-23T04:43:31.501Z,101325.34
2022-10-23T04:48:35.568Z,101328.81
2022-10-23T04:53:38.870Z,101325.41
2022-10-23T04:58:41.882Z,101323.88
2022-10-23T05:03:45.927Z,101323.38
2022-10-23T05:08:48.650Z,101315.47
2022-10-23T05:13:51.403Z,101317.19
2022-10-23T05:18:55.567Z,101319.81
2022-10-23T05:29:06.011Z,101311.00
2022-10-23T05:34:13.467Z,101318.84
2022-10-23T05:39:16.698Z,101315.22
2022-10-23T05:44:19.408Z,101317.59
2022-10-23T05:49:25.326Z,101313.97
2022-10-23T05:54:28.030Z,101321.88
2022-10-23T05:59:30.801Z,101303.59
2022-10-23T06:04:35.354Z,101296.69
2022-10-23T06:09:38.033Z,101316.03
2022-10-23T06:14:40.728Z,101306.13
2022-10-23T06:19:46.326Z,101321.31
2022-10-23T06:24:49.279Z,101313.41
2022-10-23T06:29:51.989Z,101316.94
2022-10-23T06:34:56.138Z,101311.00
2022-10-23T06:39:59.027Z,101311.00
2022-10-23T06:45:04.874Z,101312.00
2022-10-23T06:50:13.192Z,101323.47
2022-10-23T06:55:18.646Z,101332.09
2022-10-23T07:00:21.610Z,101329.38
2022-10-23T07:05:25.695Z,101328.66
2022-10-23T07:10:28.940Z,101333.84
2022-10-23T07:15:31.649Z,101341.84
2022-10-23T07:20:36.013Z,101347.38
2022-10-23T07:25:39.162Z,101350.25
2022-10-23T07:30:42.918Z,101355.59
2022-10-23T07:35:47.433Z,101348.53
2022-10-23T07:40:50.348Z,101340.78
2022-10-23T07:45:53.248Z,101346.28
2022-10-23T07:51:00.814Z,101342.34
2022-10-23T07:56:10.663Z,101340.09
2022-10-23T08:01:19.771Z,101344.72
2022-10-23T08:06:24.078Z,101344.88
2022-10-23T08:11:28.662Z,101334.41
2022-10-23T08:16:32.272Z,101328.53
2022-10-23T08:21:36.360Z,101341.47
2022-10-23T08:26:39.047Z,101323.19
2022-10-23T08:31:41.779Z,101340.34
2022-10-23T08:36:45.825Z,101336.38
2022-10-23T08:41:50.959Z,101329.97
2022-10-23T08:47:01.397Z,101324.06
2022-10-23T08:52:14.248Z,101330.50
2022-10-23T08:57:19.213Z,101331.06
2022-10-23T09:02:25.573Z,101328.44
2022-10-23T09:07:40.461Z,101338.53
2022-10-23T09:12:43.839Z,101344.53
2022-10-23T09:17:47.814Z,101340.16
2022-10-23T09:22:55.182Z,101352.72
2022-10-23T09:28:02.910Z,101345.34
2022-10-23T09:33:17.622Z,101342.22
2022-10-23T09:38:28.645Z,101351.41
2022-10-23T09:43:31.456Z,101345.16
2022-10-23T09:48:35.449Z,101346.94
2022-10-23T09:53:49.230Z,101333.84
2022-10-23T09:58:57.015Z,101332.50
2022-10-23T10:03:59.936Z,101326.47
2022-10-23T10:09:09.053Z,101337.66
2022-10-23T10:14:32.161Z,101322.75
2022-10-23T10:19:50.396Z,101326.22
2022-10-23T10:25:01.317Z,101319.75
2022-10-23T10:30:11.617Z,101314.53
2022-10-23T10:35:26.617Z,101309.59
2022-10-23T10:40:34.268Z,101301.19
2022-10-23T10:45:39.704Z,101288.94
2022-10-23T10:50:48.673Z,101272.97
2022-10-23T10:55:55.510Z,101281.22
2022-10-23T11:01:03.023Z,101271.59
2022-10-23T11:06:10.729Z,101256.69
2022-10-23T11:11:20.075Z,101257.97
2022-10-23T11:16:27.538Z,101250.81
2022-10-23T11:21:38.547Z,101245.00
2022-10-23T11:26:53.596Z,101225.09
2022-10-23T11:32:12.521Z,101227.19
2022-10-23T11:37:18.106Z,101213.94
2022-10-23T11:42:34.126Z,101202.59
2022-10-23T11:47:40.347Z,101200.19
2022-10-23T11:53:15.014Z,101192.22
2022-10-23T11:58:32.514Z,101191.75
2022-10-23T12:03:42.782Z,101179.38
2022-10-23T12:08:52.784Z,101165.31
2022-10-23T12:13:57.149Z,101153.53
2022-10-23T12:19:19.629Z,101143.91
2022-10-23T12:24:55.225Z,101135.56
2022-10-23T12:30:20.253Z,101123.53
2022-10-23T12:35:34.542Z,101117.44
2022-10-23T12:40:37.375Z,101113.22
2022-10-23T12:45:44.745Z,101112.69
2022-10-23T12:50:50.562Z,101108.44
2022-10-23T13:01:08.212Z,101088.78
2022-10-23T13:06:12.536Z,101085.19
2022-10-23T13:11:18.093Z,101069.16
2022-10-23T13:16:23.929Z,101070.91
2022-10-23T13:21:29.446Z,101063.72
2022-10-23T13:26:35.877Z,101058.38
2022-10-23T13:31:40.146Z,101052.59
2022-10-23T13:36:53.619Z,101051.31
2022-10-23T13:41:57.042Z,101047.16
2022-10-23T13:47:01.164Z,101047.75
2022-10-23T13:52:03.866Z,101043.16
2022-10-23T13:57:13.777Z,101041.34
2022-10-23T14:02:21.500Z,101043.94
2022-10-23T14:07:24.653Z,101040.56
2022-10-23T14:12:27.744Z,101025.19
2022-10-23T14:17:31.832Z,101012.41
2022-10-23T14:22:34.971Z,101013.00
2022-10-23T14:27:37.680Z,100995.19
2022-10-23T14:32:42.184Z,100979.66
2022-10-23T14:37:45.481Z,100977.28
2022-10-23T14:42:48.667Z,100976.97
2022-10-23T14:47:52.769Z,100978.88
2022-10-23T14:52:55.542Z,100964.28
2022-10-23T14:57:58.703Z,100958.59
2022-10-23T15:03:02.881Z,100946.69
2022-10-23T15:08:05.740Z,100944.59
2022-10-23T15:13:08.698Z,100933.66
2022-10-23T15:18:12.839Z,100936.19
2022-10-23T15:23:15.547Z,100927.13
2022-10-23T15:28:18.567Z,100930.38
2022-10-23T15:33:23.406Z,100930.00
2022-10-23T15:38:26.184Z,100936.94
2022-10-23T15:43:28.908Z,100923.66
2022-10-23T15:48:32.989Z,100926.91
2022-10-23T15:53:35.845Z,100919.38
2022-10-23T15:58:38.563Z,100911.91
2022-10-23T16:03:43.108Z,100925.91
2022-10-23T16:08:46.306Z,100919.53
2022-10-23T16:13:49.058Z,100918.56
2022-10-23T16:18:53.509Z,100916.09
2022-10-23T16:23:58.164Z,100900.03
2022-10-23T16:29:02.744Z,100906.97
2022-10-23T16:34:07.794Z,100897.06
2022-10-23T16:39:17.918Z,100889.75
2022-10-23T16:44:20.637Z,100889.50
2022-10-23T16:49:24.746Z,100876.81
2022-10-23T16:54:27.462Z,100874.72
2022-10-23T16:59:30.238Z,100887.94
2022-10-23T17:04:34.633Z,100886.84
2022-10-23T17:09:38.398Z,100885.47
2022-10-23T17:14:41.448Z,100867.44
2022-10-23T17:19:46.674Z,100867.41
2022-10-23T17:24:52.994Z,100864.66
2022-10-23T17:29:56.899Z,100854.66
2022-10-23T17:35:01.027Z,100850.13
2022-10-23T17:40:05.065Z,100843.69
2022-10-23T17:45:08.967Z,100837.25
2022-10-23T17:50:13.844Z,100842.34
2022-10-23T17:55:16.730Z,100840.38
2022-10-23T18:00:19.647Z,100837.50
2022-10-23T18:05:23.806Z,100829.41
2022-10-23T18:10:26.604Z,100805.44
2022-10-23T18:15:29.382Z,100782.28
2022-10-23T18:20:33.511Z,100777.69
2022-10-23T18:25:36.479Z,100766.00
2022-10-23T18:30:39.389Z,100751.63
2022-10-23T18:35:43.865Z,100749.81
2022-10-23T18:40:46.629Z,100748.72
2022-10-23T18:45:49.460Z,100737.19
2022-10-23T18:50:53.662Z,100737.16
2022-10-23T18:55:56.550Z,100714.13
2022-10-23T19:00:59.377Z,100719.34
2022-10-23T19:06:03.521Z,100706.06
2022-10-23T19:11:07.398Z,100715.78
2022-10-23T19:16:15.755Z,100721.22
2022-10-23T19:21:21.432Z,100720.34
2022-10-23T19:26:24.274Z,100726.38
2022-10-23T19:31:27.330Z,100737.63
2022-10-23T19:36:32.412Z,100740.34
2022-10-23T19:41:35.240Z,100742.13
2022-10-23T19:46:38.771Z,100736.06
2022-10-23T19:51:50.406Z,100736.91
2022-10-23T19:56:53.894Z,100741.41
2022-10-23T20:01:56.712Z,100722.16
2022-10-23T20:07:01.366Z,100711.56
2022-10-23T20:12:05.027Z,100722.00
2022-10-23T20:17:07.889Z,100716.59
2022-10-23T20:22:12.060Z,100719.91
2022-10-23T20:27:14.797Z,100701.34
2022-10-23T20:32:17.516Z,100683.78
2022-10-23T20:37:21.712Z,100673.19
2022-10-23T20:42:24.438Z,100689.91
2022-10-23T20:47:27.202Z,100675.56
2022-10-23T20:57:35.894Z,100666.91
2022-10-23T21:02:38.733Z,100653.47
2022-10-23T21:07:42.861Z,100643.63
2022-10-23T21:12:45.821Z,100631.16
2022-10-23T21:17:50.573Z,100635.47
2022-10-23T21:22:55.451Z,100626.72
2022-10-23T21:27:58.172Z,100652.53
2022-10-23T21:33:00.891Z,100637.84
2022-10-23T21:38:04.985Z,100631.75
2022-10-23T21:43:08.795Z,100635.31
2022-10-23T21:48:13.869Z,100628.25
2022-10-23T21:53:17.933Z,100636.19
2022-10-23T21:58:20.654Z,100639.72
2022-10-23T22:03:23.340Z,100634.44
2022-10-23T22:08:27.448Z,100632.66
2022-10-23T22:13:30.142Z,100631.63
2022-10-23T22:18:32.880Z,100619.19
2022-10-23T22:23:38.226Z,100621.00
2022-10-23T22:28:40.938Z,100609.63
2022-10-23T22:33:43.637Z,100604.28
2022-10-23T22:38:48.229Z,100599.78
2022-10-23T22:43:55.507Z,100607.69
2022-10-23T22:48:59.216Z,100602.44
2022-10-23T22:54:03.296Z,100586.63
2022-10-23T22:59:06.257Z,100589.25
2022-10-23T23:04:32.933Z,100587.53
2022-10-23T23:09:36.127Z,100573.53
2022-10-23T23:14:39.551Z,100586.94
2022-10-23T23:19:42.250Z,100589.69
2022-10-23T23:24:46.323Z,100585.38
2022-10-23T23:29:49.109Z,100586.41
2022-10-23T23:34:51.908Z,100588.28
2022-10-23T23:39:56.220Z,100589.16
2022-10-23T23:45:10.048Z,100594.59
2022-10-23T23:50:16.598Z,100584.91
2022-10-23T23:55:20.897Z,100578.78
